createdAt,value
2023-02-16T00:04:01.115Z,90.6
2023-02-16T00:10:28.611Z,90.8
2023-02-16T00:16:36.728Z,90.9
2023-02-16T00:22:57.419Z,90.2
2023-02-16T00:28:49.086Z,90.3
2023-02-16T00:34:49.808Z,90.6
2023-02-16T00:41:07.416Z,90.2
2023-02-16T00:47:08.122Z,91.3
2023-02-16T00:53:01.140Z,91.2
2023-02-16T00:59:05.168Z,91.1
2023-02-16T01:05:09.097Z,91.1
2023-02-16T01:11:15.068Z,91.2
2023-02-16T01:17:17.985Z,91.8
2023-02-16T01:23:16.953Z,91.1
2023-02-16T01:29:19.978Z,91.6
2023-02-16T01:35:17.916Z,91.9
2023-02-16T01:41:23.120Z,92.4
2023-02-16T01:47:36.673Z,91.1
2023-02-16T01:53:40.877Z,91.4
2023-02-16T01:59:40.839Z,93
2023-02-16T02:05:36.757Z,91.2
2023-02-16T02:11:45.172Z,93.1
2023-02-16T02:17:53.154Z,93.3
2023-02-16T02:23:47.752Z,93.5
2023-02-16T02:35:47.927Z,93.4
2023-02-16T02:42:00.403Z,92.9
2023-02-16T02:48:02.340Z,92.8
2023-02-16T02:54:18.069Z,94.6
2023-02-16T03:00:30.413Z,93.7
2023-02-16T03:06:29.487Z,94.9
2023-02-16T03:12:22.671Z,95.2
2023-02-16T03:18:20.972Z,96.4
2023-02-16T03:24:25.463Z,96.1
2023-02-16T03:30:18.718Z,96.1
2023-02-16T03:36:13.324Z,96.6
2023-02-16T03:42:09.460Z,96.3
2023-02-16T03:48:09.523Z,96.5
2023-02-16T03:54:01.119Z,97.3
2023-02-16T03:59:52.915Z,96.7
2023-02-16T04:05:49.190Z,96.4
2023-02-16T04:11:42.320Z,96.7
2023-02-16T04:17:43.214Z,95.9
2023-02-16T04:23:48.926Z,96.3
2023-02-16T04:29:42.692Z,97.7
2023-02-16T04:35:48.361Z,96.3
2023-02-16T04:41:40.509Z,96
2023-02-16T04:47:48.475Z,97.2
2023-02-16T04:53:57.059Z,97.1
2023-02-16T04:59:57.952Z,96.5
2023-02-16T05:05:49.788Z,97.5
2023-02-16T05:11:41.849Z,98.6
2023-02-16T05:17:36.937Z,98.9
2023-02-16T05:23:52.647Z,99
2023-02-16T05:29:42.778Z,98.5
2023-02-16T05:35:33.186Z,97.9
2023-02-16T05:41:25.047Z,98.1
2023-02-16T05:47:15.029Z,98.4
2023-02-16T05:53:05.508Z,99.1
2023-02-16T05:58:58.038Z,98.4
2023-02-16T06:04:48.391Z,97.9
2023-02-16T06:10:38.916Z,97.4
2023-02-16T06:16:28.996Z,98.2
2023-02-16T06:22:18.248Z,99
2023-02-16T06:28:07.761Z,98.7
2023-02-16T06:34:02.018Z,97.5
2023-02-16T06:40:05.888Z,98.2
2023-02-16T06:47:21.390Z,100
2023-02-16T06:53:11.483Z,99.9
2023-02-16T06:59:04.007Z,99.2
2023-02-16T07:04:55.030Z,98.8
2023-02-16T07:10:59.352Z,98.9
2023-02-16T07:16:52.630Z,99.5
2023-02-16T07:22:43.787Z,98.3
2023-02-16T07:28:32.210Z,100
2023-02-16T07:34:22.525Z,99.8
2023-02-16T07:40:12.698Z,99.3
2023-02-16T07:46:02.348Z,100
2023-02-16T07:51:51.727Z,100
2023-02-16T07:57:43.150Z,100
2023-02-16T08:03:45.591Z,100
2023-02-16T08:09:43.000Z,100
2023-02-16T08:15:40.780Z,100
2023-02-16T08:21:30.813Z,100
2023-02-16T08:27:24.853Z,100
2023-02-16T08:33:17.126Z,100
2023-02-16T08:39:08.037Z,100
2023-02-16T08:44:59.543Z,100
2023-02-16T08:50:48.979Z,99.2
2023-02-16T08:56:39.539Z,99.2
2023-02-16T09:02:31.681Z,99.1
2023-02-16T09:08:25.343Z,98.5
2023-02-16T09:14:17.095Z,98
2023-02-16T09:20:06.895Z,97.3
2023-02-16T09:25:58.298Z,96.9
2023-02-16T09:31:50.809Z,96.4
2023-02-16T09:37:41.815Z,96.1
2023-02-16T09:43:34.800Z,95.6
2023-02-16T09:49:35.531Z,95
2023-02-16T09:55:26.684Z,95
2023-02-16T10:01:17.734Z,94.6
2023-02-16T10:07:10.760Z,94.1
2023-02-16T10:13:02.766Z,93.3
2023-02-16T10:18:54.380Z,92.4
2023-02-16T10:24:45.912Z,91.5
2023-02-16T10:30:42.049Z,90.7
2023-02-16T10:36:43.408Z,89.4
2023-02-16T10:42:37.688Z,88.9
2023-02-16T10:48:27.431Z,88.4
2023-02-16T10:54:19.899Z,87.6
2023-02-16T11:00:14.734Z,87.5
2023-02-16T11:06:15.780Z,88.4
2023-02-16T11:12:07.673Z,89.5
2023-02-16T11:18:21.867Z,90
2023-02-16T11:24:36.107Z,90.7
2023-02-16T11:30:36.525Z,88.4
2023-02-16T11:36:28.276Z,87.5
2023-02-16T11:42:18.569Z,86.9
2023-02-16T11:48:09.276Z,86.8
2023-02-16T11:54:11.825Z,86.3
2023-02-16T12:00:06.060Z,88.7
2023-02-16T12:05:56.995Z,89.2
2023-02-16T12:11:52.991Z,88.3
2023-02-16T12:17:44.284Z,88.7
2023-02-16T12:23:35.935Z,91.1
2023-02-16T12:29:30.473Z,92.3
2023-02-16T12:35:25.192Z,93.8
2023-02-16T12:41:17.868Z,94.1
2023-02-16T12:47:07.903Z,94.3
2023-02-16T12:52:58.595Z,93.1
2023-02-16T12:58:47.600Z,92.5
2023-02-16T13:04:47.194Z,92.5
2023-02-16T13:10:42.199Z,92.1
2023-02-16T13:23:01.252Z,91.3
2023-02-16T13:28:54.621Z,91.1
2023-02-16T13:35:13.216Z,92.1
2023-02-16T13:41:37.685Z,95.9
2023-02-16T13:53:53.441Z,95.4
2023-02-16T13:59:57.670Z,95.6
2023-02-16T14:05:47.645Z,95.4
2023-02-16T14:11:45.790Z,95
2023-02-16T14:17:41.918Z,94.5
2023-02-16T14:23:44.446Z,93.7
2023-02-16T14:29:49.333Z,92.6
2023-02-16T14:35:53.987Z,92.5
2023-02-16T14:41:43.827Z,92
2023-02-16T14:47:46.646Z,91.9
2023-02-16T15:00:08.993Z,91.2
2023-02-16T15:06:06.733Z,90.9
2023-02-16T15:12:05.603Z,90.1
2023-02-16T15:18:08.914Z,90
2023-02-16T15:23:59.620Z,89.7
2023-02-16T15:30:00.465Z,89.1
2023-02-16T15:35:53.177Z,88.9
2023-02-16T15:41:46.449Z,89
2023-02-16T15:47:49.467Z,89
2023-02-16T15:53:51.922Z,88.7
2023-02-16T15:59:43.545Z,88
2023-02-16T16:05:31.968Z,87.6
2023-02-16T16:11:23.240Z,88.1
2023-02-16T16:17:26.510Z,88.2
2023-02-16T16:23:16.582Z,88.3
2023-02-16T16:29:10.157Z,88
2023-02-16T16:35:00.390Z,87.5
2023-02-16T16:40:57.423Z,86.9
2023-02-16T16:46:48.215Z,87
2023-02-16T16:58:48.671Z,87
2023-02-16T17:04:37.825Z,87
2023-02-16T17:10:26.715Z,86.4
2023-02-16T17:16:16.725Z,86.4
2023-02-16T17:22:09.193Z,87
2023-02-16T17:27:59.618Z,86.5
2023-02-16T17:33:52.540Z,86.5
2023-02-16T17:39:43.095Z,86.2
2023-02-16T17:45:35.776Z,86.4
2023-02-16T17:51:26.715Z,86.5
2023-02-16T17:57:18.093Z,86.7
2023-02-16T18:03:10.137Z,86.9
2023-02-16T18:09:01.638Z,88
2023-02-16T18:14:55.138Z,89.1
2023-02-16T18:20:52.213Z,89.2
2023-02-16T18:26:43.775Z,89.4
2023-02-16T18:32:35.093Z,89.6
2023-02-16T18:38:25.362Z,89.9
2023-02-16T18:44:19.315Z,90
2023-02-16T18:50:17.052Z,90.1
2023-02-16T18:56:07.633Z,90
2023-02-16T19:01:57.562Z,89.9
2023-02-16T19:07:49.903Z,90
2023-02-16T19:13:41.762Z,90.7
2023-02-16T19:19:32.702Z,90.4
2023-02-16T19:25:22.601Z,90.5
2023-02-16T19:31:11.975Z,89.8
2023-02-16T19:37:03.616Z,89.5
2023-02-16T19:42:53.771Z,89.4
2023-02-16T19:48:43.795Z,89.4
2023-02-16T19:54:33.968Z,89.3
2023-02-16T20:00:23.832Z,88.9
2023-02-16T20:06:13.392Z,89.1
2023-02-16T20:12:02.753Z,90.3
2023-02-16T20:17:57.260Z,90.6
2023-02-16T20:23:49.608Z,90.9
2023-02-16T20:29:40.597Z,91.1
2023-02-16T20:35:32.653Z,91.2
2023-02-16T20:41:23.200Z,91.6
2023-02-16T20:47:15.373Z,91.9
2023-02-16T20:53:07.394Z,92.9
2023-02-16T20:58:59.581Z,93.3
2023-02-16T21:04:50.207Z,94.3
2023-02-16T21:10:52.986Z,95.2
2023-02-16T21:16:42.569Z,95.8
2023-02-16T21:22:32.004Z,97.4
2023-02-16T21:28:23.564Z,98.9
2023-02-16T21:34:13.429Z,99.7
2023-02-16T21:40:04.017Z,99
2023-02-16T21:45:59.127Z,99
2023-02-16T21:51:50.783Z,98.9
2023-02-16T21:57:41.051Z,99
2023-02-16T22:03:32.693Z,99.4
2023-02-16T22:09:25.189Z,99.2
2023-02-16T22:15:17.682Z,99.3
2023-02-16T22:21:07.710Z,99.2
2023-02-16T22:26:58.202Z,99.5
2023-02-16T22:32:54.350Z,99.6
2023-02-16T22:38:45.796Z,99.5
2023-02-16T22:44:39.533Z,99.6
2023-02-16T22:50:29.659Z,99.8
2023-02-16T22:56:18.954Z,99.8
2023-02-16T23:02:13.378Z,100
2023-02-16T23:08:22.316Z,100
2023-02-16T23:14:43.170Z,100
2023-02-16T23:27:00.251Z,100
2023-02-16T23:32:53.129Z,100
2023-02-16T23:38:52.221Z,100
2023-02-16T23:45:18.162Z,100
2023-02-16T23:51:33.590Z,100
2023-02-16T23:57:29.028Z,100
